Time;durP1;ratioP1;P1;durP2;ratioP2;P2;SDS_P1;SDS_P2;PMS_P1;PMS_P2;Temp;Humidity;BMP_temperature;BMP_pressure;BME280_temperature;BME280_humidity;BME280_pressure;Samples;Min_cycle;Max_cycle;Signal;HPM_P1;HPM_P2
2021/12/10 00:01:48;;;;;;;112.30;34.73;;;2.10;34.10;;;;;;5020914;28;20303;-55
2021/12/10 00:04:15;;;;;;;110.60;35.90;;;2.10;37.30;;;;;;5021233;28;20194;-55
2021/12/10 00:06:55;;;;;;;114.07;35.37;;;2.10;35.00;;;;;;5015455;28;20434;-55
2021/12/10 00:09:34;;;;;;;124.10;36.77;;;2.10;38.50;;;;;;5019539;28;20478;-55
2021/12/10 00:12:18;;;;;;;114.43;36.47;;;2.10;40.20;;;;;;5020494;28;20773;-55
2021/12/10 00:14:44;;;;;;;119.03;36.80;;;2.10;45.20;;;;;;5020419;28;20804;-54
2021/12/10 00:17:12;;;;;;;124.17;37.53;;;2.10;51.50;;;;;;5025781;28;20939;-55
2021/12/10 00:19:48;;;;;;;120.90;36.60;;;2.10;48.50;;;;;;5021707;28;20501;-55
2021/12/10 00:22:40;;;;;;;119.97;38.23;;;2.10;44.00;;;;;;5021042;28;20460;-55
2021/12/10 00:25:16;;;;;;;130.43;38.87;;;2.10;51.40;;;;;;5021753;28;20438;-55
2021/12/10 00:27:41;;;;;;;108.10;38.07;;;2.10;53.20;;;;;;5040643;28;20437;-55
2021/12/10 00:30:19;;;;;;;132.70;37.60;;;2.10;57.40;;;;;;5022613;28;20508;-55
2021/12/10 00:32:58;;;;;;;125.93;39.50;;;2.00;61.30;;;;;;5019362;28;20260;-55
2021/12/10 00:35:27;;;;;;;133.83;37.90;;;2.00;73.20;;;;;;5019112;28;20532;-55
2021/12/10 00:37:52;;;;;;;129.97;38.90;;;2.00;78.00;;;;;;5022966;28;20445;-55
2021/12/10 00:40:21;;;;;;;131.60;39.10;;;2.10;86.10;;;;;;5022452;28;20447;-61
2021/12/10 00:42:47;;;;;;;120.00;38.13;;;2.10;77.50;;;;;;5014291;28;20199;-55
2021/12/10 00:45:15;;;;;;;117.13;36.53;;;2.20;73.00;;;;;;5019609;28;21173;-54
2021/12/10 00:47:41;;;;;;;124.03;39.13;;;2.10;63.20;;;;;;5014800;28;21292;-56
2021/12/10 00:50:12;;;;;;;137.20;40.03;;;2.10;61.50;;;;;;5015688;28;20539;-55
2021/12/10 00:52:38;;;;;;;132.03;40.77;;;2.10;59.00;;;;;;5020108;28;20442;-55
2021/12/10 00:55:06;;;;;;;124.03;40.17;;;2.10;51.70;;;;;;5018664;28;20482;-55
2021/12/10 00:57:32;;;;;;;117.90;38.77;;;2.10;56.90;;;;;;5022744;28;20198;-55
2021/12/10 00:59:58;;;;;;;118.90;36.20;;;2.10;58.40;;;;;;5019446;28;20904;-55
2021/12/10 01:02:24;;;;;;;124.20;35.73;;;2.10;58.90;;;;;;5020364;28;20454;-54
2021/12/10 01:04:54;;;;;;;115.27;37.50;;;2.10;64.30;;;;;;5018962;28;20668;-60
2021/12/10 01:07:22;;;;;;;112.20;36.33;;;2.10;64.20;;;;;;5020186;28;20446;-55
2021/12/10 01:09:50;;;;;;;105.90;35.83;;;2.10;58.80;;;;;;5018149;28;20489;-55
2021/12/10 01:12:29;;;;;;;103.20;34.63;;;2.20;58.60;;;;;;5020412;28;20450;-54
2021/12/10 01:15:31;;;;;;;115.93;35.93;;;2.10;59.90;;;;;;5018491;28;20462;-55
2021/12/10 01:23:53;;;;;;;109.57;36.60;;;2.10;68.80;;;;;;4997688;28;20501;-55
2021/12/10 01:26:37;;;;;;;137.23;37.93;;;2.00;72.70;;;;;;5018871;28;20959;-55
2021/12/10 01:29:05;;;;;;;127.93;37.47;;;2.10;73.60;;;;;;5022465;28;20461;-55
2021/12/10 01:31:31;;;;;;;118.03;36.67;;;2.10;63.50;;;;;;5024738;28;20442;-54
2021/12/10 01:33:56;;;;;;;102.60;36.93;;;2.00;67.60;;;;;;5020968;28;20495;-54
2021/12/10 01:36:22;;;;;;;120.33;38.20;;;2.00;75.10;;;;;;5019115;28;20199;-55
2021/12/10 01:38:51;;;;;;;104.43;36.50;;;2.00;83.20;;;;;;5020506;28;20637;-55
2021/12/10 01:41:19;;;;;;;105.97;36.80;;;2.10;87.60;;;;;;5018886;28;20203;-55
2021/12/10 01:43:50;;;;;;;114.73;35.40;;;2.00;84.70;;;;;;5015778;28;20446;-55
2021/12/10 01:46:24;;;;;;;115.33;36.37;;;2.00;83.20;;;;;;5015312;28;20917;-55
2021/12/10 01:48:53;;;;;;;112.00;34.87;;;2.00;83.60;;;;;;5021223;28;20462;-55
2021/12/10 01:51:23;;;;;;;104.67;36.00;;;2.00;78.70;;;;;;5013671;28;20443;-55
2021/12/10 01:53:52;;;;;;;117.43;35.70;;;2.00;84.30;;;;;;5017577;28;20586;-55
2021/12/10 01:56:28;;;;;;;108.37;37.30;;;2.00;87.40;;;;;;5019373;28;20472;-55
2021/12/10 01:58:54;;;;;;;112.60;36.93;;;2.00;90.50;;;;;;5016622;28;20527;-55
2021/12/10 02:01:26;;;;;;;107.83;35.60;;;2.00;94.50;;;;;;5016328;28;20443;-55
2021/12/10 02:03:53;;;;;;;111.60;35.60;;;2.00;94.00;;;;;;5017348;28;20536;-55
2021/12/10 02:06:19;;;;;;;103.33;35.60;;;2.10;97.50;;;;;;5017757;28;20442;-55
2021/12/10 02:08:45;;;;;;;104.00;34.27;;;2.10;93.30;;;;;;5017582;28;20473;-55
2021/12/10 02:11:11;;;;;;;100.97;33.20;;;2.10;84.40;;;;;;5025289;28;20191;-56
2021/12/10 02:13:39;;;;;;;91.60;33.27;;;2.20;89.50;;;;;;5015319;28;20449;-55
2021/12/10 02:16:05;;;;;;;98.13;32.70;;;2.20;75.30;;;;;;5020871;28;20447;-54
2021/12/10 02:18:31;;;;;;;103.10;36.03;;;2.20;55.50;;;;;;5016518;28;20449;-55
2021/12/10 02:21:02;;;;;;;107.43;32.37;;;2.10;57.00;;;;;;5021830;28;20441;-55
2021/12/10 02:23:36;;;;;;;108.70;35.43;;;2.10;63.60;;;;;;5017324;28;20199;-55
2021/12/10 02:26:04;;;;;;;102.60;33.40;;;2.10;65.00;;;;;;5017761;28;20453;-55
2021/12/10 02:28:30;;;;;;;108.43;35.63;;;2.20;68.50;;;;;;5016235;28;20533;-54
2021/12/10 02:30:56;;;;;;;108.80;33.60;;;2.10;65.70;;;;;;5020016;28;20540;-54
2021/12/10 02:33:22;;;;;;;92.10;32.93;;;2.20;64.20;;;;;;5018212;28;20199;-55
2021/12/10 02:35:48;;;;;;;96.90;33.60;;;2.20;66.70;;;;;;5020431;28;20503;-55
2021/12/10 02:38:16;;;;;;;100.80;33.67;;;2.20;65.90;;;;;;5017630;28;20437;-55
2021/12/10 02:40:44;;;;;;;110.70;35.57;;;2.20;58.30;;;;;;5016101;28;20194;-56
2021/12/10 02:43:12;;;;;;;100.17;34.00;;;2.10;55.10;;;;;;5017928;28;20484;-55
2021/12/10 02:45:41;;;;;;;95.33;34.10;;;2.10;57.50;;;;;;5014959;28;20450;-55
2021/12/10 02:48:07;;;;;;;95.70;33.40;;;2.10;59.80;;;;;;5016040;28;20458;-55
2021/12/10 02:50:34;;;;;;;101.17;34.20;;;2.00;62.10;;;;;;5019393;28;20548;-55
2021/12/10 02:53:02;;;;;;;99.73;36.13;;;2.00;69.90;;;;;;5018361;28;20477;-54
2021/12/10 02:55:29;;;;;;;111.07;37.50;;;2.10;72.90;;;;;;5017139;28;20516;-55
2021/12/10 02:57:58;;;;;;;114.93;36.33;;;2.00;76.40;;;;;;5018546;28;20973;-55
2021/12/10 03:00:28;;;;;;;108.00;36.07;;;2.10;78.60;;;;;;5017182;28;20566;-55
2021/12/10 03:02:55;;;;;;;100.63;34.30;;;2.10;76.90;;;;;;5012974;28;20478;-55
2021/12/10 03:05:21;;;;;;;106.13;33.87;;;2.10;77.20;;;;;;5018397;28;20457;-55
2021/12/10 03:07:47;;;;;;;101.57;31.93;;;2.10;81.60;;;;;;5015375;28;20813;-55
2021/12/10 03:10:18;;;;;;;97.10;33.57;;;2.10;85.50;;;;;;5015152;28;20498;-55
2021/12/10 03:12:45;;;;;;;107.30;35.20;;;2.20;78.60;;;;;;5020442;28;20191;-54
2021/12/10 03:15:11;;;;;;;99.23;34.20;;;2.10;71.00;;;;;;5015775;28;20469;-54
2021/12/10 03:17:37;;;;;;;101.97;34.70;;;2.10;71.00;;;;;;5014708;28;20450;-55
2021/12/10 03:20:08;;;;;;;111.77;34.70;;;2.20;76.20;;;;;;5018623;28;20453;-55
2021/12/10 03:22:36;;;;;;;105.33;35.73;;;2.10;71.50;;;;;;5016856;28;20253;-54
2021/12/10 03:25:04;;;;;;;101.87;34.07;;;2.00;68.70;;;;;;5012417;28;20438;-55
2021/12/10 03:27:29;;;;;;;105.03;33.63;;;2.00;81.80;;;;;;5019032;28;20445;-55
2021/12/10 03:29:55;;;;;;;95.27;34.00;;;2.00;90.30;;;;;;5016233;28;20482;-55
2021/12/10 03:32:25;;;;;;;99.07;33.07;;;2.00;89.60;;;;;;5018252;28;20254;-54
2021/12/10 03:34:51;;;;;;;109.03;34.23;;;2.10;90.30;;;;;;5016209;28;20453;-55
2021/12/10 03:37:19;;;;;;;98.43;35.43;;;2.00;80.40;;;;;;5013463;28;21027;-55
2021/12/10 03:39:46;;;;;;;90.43;33.23;;;2.10;86.90;;;;;;5013981;28;21690;-54
2021/12/10 03:42:12;;;;;;;98.10;34.30;;;2.00;80.40;;;;;;5013725;28;20445;-55
2021/12/10 03:44:38;;;;;;;100.90;33.10;;;2.00;86.60;;;;;;5018436;28;20829;-54
2021/12/10 03:47:06;;;;;;;105.77;35.20;;;2.00;89.90;;;;;;5017332;28;20191;-55
2021/12/10 03:49:32;;;;;;;101.90;31.97;;;2.00;91.60;;;;;;5017585;28;20520;-54
2021/12/10 03:51:58;;;;;;;99.37;34.80;;;2.00;93.30;;;;;;5020875;28;20545;-55
2021/12/10 03:54:24;;;;;;;97.40;33.63;;;2.00;94.10;;;;;;5017407;28;20450;-54
2021/12/10 03:56:50;;;;;;;96.93;32.63;;;2.10;92.10;;;;;;5015886;28;20608;-54
2021/12/10 03:59:18;;;;;;;91.30;33.90;;;2.10;90.00;;;;;;5019874;28;20454;-55
2021/12/10 04:01:47;;;;;;;98.03;32.13;;;2.00;85.40;;;;;;5013455;28;20442;-54
2021/12/10 04:04:18;;;;;;;83.20;31.17;;;2.10;87.50;;;;;;5018458;28;20469;-54
2021/12/10 04:06:44;;;;;;;87.10;31.03;;;2.10;84.40;;;;;;5015084;28;20470;-54
2021/12/10 04:09:10;;;;;;;91.73;32.27;;;2.20;74.00;;;;;;5018575;28;20967;-55
2021/12/10 04:11:37;;;;;;;86.20;31.00;;;2.20;59.00;;;;;;5014592;28;20643;-55
2021/12/10 04:14:05;;;;;;;84.33;30.17;;;2.10;49.70;;;;;;5014859;28;20471;-55
2021/12/10 04:16:31;;;;;;;89.60;30.80;;;2.10;46.30;;;;;;5018093;28;20441;-54
2021/12/10 04:18:59;;;;;;;98.97;32.97;;;2.10;47.90;;;;;;5016955;28;20453;-54
2021/12/10 04:21:25;;;;;;;94.80;30.60;;;2.10;49.50;;;;;;5016429;28;20895;-55
2021/12/10 04:23:51;;;;;;;86.70;31.17;;;2.10;51.00;;;;;;5016297;28;20800;-55
2021/12/10 04:26:20;;;;;;;80.60;29.90;;;2.10;52.30;;;;;;5019204;28;20450;-55
2021/12/10 04:28:46;;;;;;;91.30;30.57;;;2.10;54.10;;;;;;5016411;28;20517;-55
2021/12/10 04:31:12;;;;;;;87.33;29.50;;;2.20;56.50;;;;;;5018986;28;20439;-55
2021/12/10 04:33:38;;;;;;;74.20;27.17;;;2.10;59.70;;;;;;5017636;28;20525;-55
2021/12/10 04:36:05;;;;;;;79.30;29.10;;;2.10;56.40;;;;;;5021637;28;20456;-55
2021/12/10 04:38:33;;;;;;;79.00;29.10;;;2.10;50.40;;;;;;5020576;28;20430;-55
2021/12/10 04:41:01;;;;;;;84.70;29.50;;;2.10;52.90;;;;;;5021907;28;20468;-54
2021/12/10 04:43:32;;;;;;;81.00;26.37;;;2.10;55.00;;;;;;5016999;28;20445;-55
2021/12/10 04:45:59;;;;;;;85.13;29.10;;;2.10;60.20;;;;;;5018168;28;20489;-54
2021/12/10 04:48:27;;;;;;;88.07;29.90;;;2.20;63.80;;;;;;5020168;28;20449;-55
2021/12/10 04:50:54;;;;;;;90.33;28.73;;;2.20;55.00;;;;;;5016487;28;20443;-55
2021/12/10 04:53:20;;;;;;;74.30;27.27;;;2.20;48.10;;;;;;5017185;28;20477;-54
2021/12/10 04:55:45;;;;;;;73.80;27.40;;;2.20;45.40;;;;;;5019431;28;20480;-54
2021/12/10 04:58:12;;;;;;;84.87;26.83;;;2.30;43.00;;;;;;5019198;28;20203;-55
2021/12/10 05:00:43;;;;;;;90.73;29.23;;;2.20;41.20;;;;;;5019464;28;20209;-55
2021/12/10 05:03:09;;;;;;;73.60;27.60;;;2.20;50.10;;;;;;5016781;28;20454;-55
2021/12/10 05:05:35;;;;;;;67.90;26.33;;;2.30;49.50;;;;;;5023834;28;20454;-55
2021/12/10 05:08:02;;;;;;;79.17;25.13;;;2.30;46.00;;;;;;5017718;28;20477;-55
2021/12/10 05:10:28;;;;;;;83.17;29.53;;;2.30;35.60;;;;;;5018477;28;20485;-55
2021/12/10 05:12:53;;;;;;;74.00;26.57;;;2.20;35.10;;;;;;5018135;28;20791;-55
2021/12/10 05:15:22;;;;;;;67.27;27.47;;;2.20;41.10;;;;;;5017865;28;20210;-55
2021/12/10 05:17:50;;;;;;;78.50;27.97;;;2.20;50.40;;;;;;5022624;28;20195;-55
2021/12/10 05:20:22;;;;;;;74.43;26.13;;;2.20;47.10;;;;;;5018782;28;20920;-55
2021/12/10 05:22:49;;;;;;;70.13;28.40;;;2.20;40.00;;;;;;5018649;28;20454;-55
2021/12/10 05:25:16;;;;;;;84.30;28.23;;;2.10;44.00;;;;;;5020529;28;20442;-55
2021/12/10 05:27:43;;;;;;;69.77;25.73;;;2.10;48.00;;;;;;5019122;28;20482;-55
2021/12/10 05:30:12;;;;;;;67.63;26.20;;;2.10;53.00;;;;;;5020473;28;20469;-55
2021/12/10 05:32:37;;;;;;;72.50;24.93;;;2.10;50.10;;;;;;5021977;28;20465;-55
2021/12/10 05:35:05;;;;;;;68.80;25.87;;;2.20;52.60;;;;;;5012943;28;20458;-55
2021/12/10 05:37:31;;;;;;;69.57;24.90;;;2.10;44.90;;;;;;5018381;28;20195;-55
2021/12/10 05:39:56;;;;;;;68.10;25.60;;;2.10;47.20;;;;;;5018846;28;20949;-55
2021/12/10 05:42:22;;;;;;;69.10;25.67;;;2.10;51.50;;;;;;5017933;28;20207;-55
2021/12/10 05:44:48;;;;;;;81.43;26.40;;;2.10;51.40;;;;;;5019388;28;20223;-56
2021/12/10 05:47:14;;;;;;;69.97;27.13;;;2.10;56.20;;;;;;5017427;28;20214;-58
2021/12/10 05:49:40;;;;;;;82.20;26.90;;;2.00;50.40;;;;;;5018321;28;20230;-55
2021/12/10 05:52:06;;;;;;;81.80;26.93;;;2.00;48.20;;;;;;5023560;28;20442;-55
2021/12/10 05:54:33;;;;;;;75.90;25.60;;;2.10;46.30;;;;;;5016702;28;20506;-55
2021/12/10 05:56:59;;;;;;;66.50;23.03;;;2.10;43.70;;;;;;5020556;28;20445;-54
2021/12/10 05:59:24;;;;;;;64.20;24.37;;;2.00;31.20;;;;;;5020805;28;20473;-54
2021/12/10 06:01:50;;;;;;;63.20;24.97;;;1.90;25.00;;;;;;5017987;28;20446;-55
2021/12/10 06:04:22;;;;;;;67.47;26.20;;;1.90;32.40;;;;;;5019867;28;20204;-54
2021/12/10 06:06:47;;;;;;;71.47;24.13;;;1.80;40.30;;;;;;5017874;28;20206;-60
2021/12/10 06:09:13;;;;;;;65.03;24.67;;;1.80;36.60;;;;;;5016163;28;20472;-55
2021/12/10 06:11:38;;;;;;;64.37;24.30;;;1.70;35.00;;;;;;5020042;28;20201;-54
2021/12/10 06:14:06;;;;;;;57.47;23.90;;;1.60;39.40;;;;;;5016326;28;20657;-54
2021/12/10 06:16:32;;;;;;;63.70;24.57;;;1.60;47.20;;;;;;5020507;28;20194;-54
2021/12/10 06:18:58;;;;;;;68.80;22.83;;;1.50;51.30;;;;;;5015594;28;21021;-56
2021/12/10 06:21:24;;;;;;;61.33;23.40;;;1.50;58.00;;;;;;5012192;28;20273;-54
2021/12/10 06:23:50;;;;;;;62.40;24.10;;;1.40;63.80;;;;;;5020060;28;20458;-55
2021/12/10 06:26:15;;;;;;;56.27;23.77;;;1.40;70.20;;;;;;5014416;28;20206;-54
2021/12/10 06:28:45;;;;;;;69.87;24.50;;;1.40;75.10;;;;;;5035625;28;20199;-54
2021/12/10 06:31:18;;;;;;;75.10;25.83;;;1.40;82.20;;;;;;5018350;28;21653;-54
2021/12/10 06:33:44;;;;;;;74.20;25.03;;;1.50;90.00;;;;;;5019256;28;20430;-54
2021/12/10 06:36:11;;;;;;;67.90;24.80;;;1.60;96.70;;;;;;5023370;28;20450;-52
2021/12/10 06:38:37;;;;;;;69.23;25.07;;;1.60;97.80;;;;;;5018611;28;20441;-52
2021/12/10 06:41:04;;;;;;;62.43;25.90;;;1.60;96.10;;;;;;5015452;28;20950;-51
2021/12/10 06:43:29;;;;;;;63.20;24.23;;;1.60;95.00;;;;;;5037330;28;20443;-52
2021/12/10 06:45:55;;;;;;;70.23;24.17;;;1.70;96.60;;;;;;5012966;28;20438;-52
2021/12/10 06:48:25;;;;;;;63.20;25.00;;;1.70;93.40;;;;;;5015680;28;20202;-52
2021/12/10 06:50:58;;;;;;;67.90;25.00;;;1.80;93.70;;;;;;5018659;28;20561;-52
2021/12/10 06:53:27;;;;;;;71.43;24.63;;;1.80;88.40;;;;;;5019014;28;20446;-51
2021/12/10 06:55:53;;;;;;;67.57;26.40;;;1.80;80.70;;;;;;5016514;28;20466;-52
2021/12/10 06:58:19;;;;;;;68.23;26.57;;;1.80;78.90;;;;;;5020366;28;20445;-52
2021/12/10 07:00:49;;;;;;;62.93;24.27;;;1.80;74.70;;;;;;5016247;28;20449;-52
2021/12/10 07:03:21;;;;;;;77.73;26.37;;;1.80;65.80;;;;;;5016855;28;20442;-51
2021/12/10 07:05:48;;;;;;;74.40;26.20;;;1.80;69.40;;;;;;5016706;28;20440;-51
2021/12/10 07:08:15;;;;;;;72.50;25.73;;;1.80;75.30;;;;;;5020775;28;20447;-51
2021/12/10 07:10:42;;;;;;;80.97;26.57;;;1.80;75.50;;;;;;5013751;28;20544;-52
2021/12/10 07:13:08;;;;;;;63.07;23.93;;;1.90;75.30;;;;;;5016255;28;20444;-52
2021/12/10 07:15:40;;;;;;;76.07;24.83;;;1.90;66.30;;;;;;5016985;28;20442;-51
2021/12/10 07:18:05;;;;;;;69.60;27.10;;;1.90;56.90;;;;;;5016507;28;20561;-53
2021/12/10 07:20:31;;;;;;;72.13;28.10;;;1.90;59.30;;;;;;5017472;28;20533;-54
2021/12/10 07:22:57;;;;;;;68.80;25.13;;;1.90;52.60;;;;;;5013598;28;20215;-52
2021/12/10 07:25:22;;;;;;;77.80;27.00;;;1.80;50.10;;;;;;5019145;28;20261;-53
2021/12/10 07:27:49;;;;;;;72.33;25.87;;;1.80;59.10;;;;;;5018484;28;20283;-52
2021/12/10 07:30:16;;;;;;;75.33;28.13;;;1.90;57.90;;;;;;5018693;28;20310;-52
2021/12/10 07:32:42;;;;;;;76.97;26.40;;;1.90;61.30;;;;;;5015920;28;20439;-54
2021/12/10 07:35:08;;;;;;;75.63;27.03;;;1.90;58.80;;;;;;5020008;28;20938;-54
2021/12/10 07:37:35;;;;;;;72.87;26.00;;;1.90;49.10;;;;;;5010751;28;20696;-53
2021/12/10 07:40:03;;;;;;;63.90;24.67;;;1.90;48.80;;;;;;5015111;28;20483;-52
2021/12/10 07:42:28;;;;;;;72.53;27.17;;;2.00;37.70;;;;;;5017632;28;20971;-52
2021/12/10 07:44:56;;;;;;;80.00;26.50;;;1.90;29.00;;;;;;5012789;28;20437;-52
2021/12/10 07:47:22;;;;;;;71.83;25.70;;;1.90;40.30;;;;;;5017864;28;20193;-52
2021/12/10 07:49:48;;;;;;;73.23;27.00;;;1.90;44.10;;;;;;5017988;28;20901;-52
2021/12/10 07:52:20;;;;;;;74.10;27.67;;;1.90;40.90;;;;;;5016514;28;20869;-51
2021/12/10 07:54:47;;;;;;;68.33;26.57;;;2.00;43.00;;;;;;5016441;28;20485;-52
2021/12/10 07:57:16;;;;;;;66.83;25.60;;;2.00;46.30;;;;;;5016813;28;20532;-51
2021/12/10 07:59:42;;;;;;;76.20;26.60;;;2.00;44.40;;;;;;5018316;28;20442;-52
2021/12/10 08:02:08;;;;;;;74.37;27.20;;;2.10;40.10;;;;;;5015571;28;20461;-52
2021/12/10 08:04:33;;;;;;;87.63;27.27;;;2.10;26.40;;;;;;5035664;28;20948;-59
2021/12/10 08:06:59;;;;;;;66.53;26.60;;;2.10;26.00;;;;;;5019452;28;20258;-52
2021/12/10 08:09:26;;;;;;;77.10;26.33;;;2.10;15.30;;;;;;5020696;28;21854;-51
2021/12/10 08:11:52;;;;;;;78.80;25.97;;;2.10;18.50;;;;;;5025064;28;20253;-52
2021/12/10 08:14:17;;;;;;;67.97;25.00;;;2.10;13.90;;;;;;5020379;28;20493;-52
2021/12/10 08:16:43;;;;;;;71.40;27.77;;;2.10;14.40;;;;;;5024351;28;21002;-53
2021/12/10 08:19:12;;;;;;;65.00;24.90;;;2.10;18.50;;;;;;5020999;28;20203;-51
2021/12/10 08:21:39;;;;;;;78.13;26.63;;;2.20;22.00;;;;;;5019877;28;20322;-52
2021/12/10 08:24:04;;;;;;;67.00;25.30;;;2.20;18.20;;;;;;5022390;28;20447;-60
2021/12/10 08:26:30;;;;;;;210.70;69.17;;;2.20;14.00;;;;;;5019993;28;20446;-51
2021/12/10 08:28:56;;;;;;;75.53;27.40;;;2.30;20.40;;;;;;5019221;28;20223;-52
2021/12/10 08:31:21;;;;;;;75.50;27.45;;;2.30;16.70;;;;;;5019147;28;20434;-52
2021/12/10 08:33:49;;;;;;;66.77;26.23;;;2.30;1.50;;;;;;5023356;28;20629;-51
2021/12/10 08:36:17;;;;;;;76.00;28.27;;;2.40;1.00;;;;;;5022838;28;20225;-52
2021/12/10 08:38:43;;;;;;;68.57;25.10;;;2.40;1.00;;;;;;5017675;28;20932;-52
2021/12/10 08:41:13;;;;;;;68.33;24.50;;;2.40;1.00;;;;;;5021111;28;20454;-51
2021/12/10 08:43:40;;;;;;;68.97;23.10;;;2.40;1.00;;;;;;5019304;28;20506;-52
2021/12/10 08:46:07;;;;;;;61.13;24.03;;;2.40;1.00;;;;;;5021209;28;20442;-52
2021/12/10 08:48:33;;;;;;;68.97;24.67;;;2.40;1.00;;;;;;5019327;28;20453;-52
2021/12/10 08:51:06;;;;;;;69.50;26.20;;;2.40;1.00;;;;;;5016140;28;20985;-52
2021/12/10 08:53:32;;;;;;;69.27;24.80;;;2.50;1.00;;;;;;5019291;28;20925;-51
2021/12/10 08:55:58;;;;;;;59.53;24.27;;;2.50;1.00;;;;;;5020958;28;20477;-67
2021/12/10 08:58:25;;;;;;;59.73;24.50;;;2.50;1.00;;;;;;5016341;28;20682;-51
2021/12/10 09:00:57;;;;;;;74.63;25.10;;;2.60;1.00;;;;;;5019864;28;20445;-51
2021/12/10 09:03:22;;;;;;;63.33;23.00;;;2.50;1.00;;;;;;5020416;28;20436;-51
2021/12/10 09:05:48;;;;;;;59.87;23.27;;;2.60;1.00;;;;;;5021474;28;20449;-51
2021/12/10 09:08:14;;;;;;;52.50;22.60;;;2.60;1.00;;;;;;5021258;28;20207;-52
2021/12/10 09:10:42;;;;;;;63.00;22.70;;;2.70;1.00;;;;;;5017505;28;20231;-50
2021/12/10 09:13:13;;;;;;;60.47;22.60;;;2.60;1.00;;;;;;5016001;28;20900;-51
2021/12/10 09:15:46;;;;;;;61.33;23.63;;;2.60;1.00;;;;;;5019387;28;20493;-50
2021/12/10 09:18:12;;;;;;;67.10;22.33;;;2.60;1.00;;;;;;5015015;28;20442;-50
2021/12/10 09:20:41;;;;;;;54.40;21.93;;;2.70;1.00;;;;;;5017674;28;20433;-51
2021/12/10 09:23:11;;;;;;;50.97;21.57;;;2.70;1.00;;;;;;5014188;28;20824;-51
2021/12/10 09:25:38;;;;;;;58.03;21.77;;;2.80;1.00;;;;;;5018828;28;20536;-51
2021/12/10 09:28:05;;;;;;;49.00;19.40;;;2.80;1.00;;;;;;5022326;28;20441;-51
2021/12/10 09:30:32;;;;;;;61.73;21.80;;;2.80;1.00;;;;;;5018660;28;20557;-51
2021/12/10 09:32:59;;;;;;;55.77;21.97;;;2.90;1.00;;;;;;5021044;28;20446;-52
2021/12/10 09:35:27;;;;;;;52.87;20.50;;;2.90;1.00;;;;;;5015192;28;20438;-51
2021/12/10 09:37:53;;;;;;;59.03;22.30;;;2.90;1.00;;;;;;5017324;28;20545;-51
2021/12/10 09:40:27;;;;;;;58.20;20.13;;;2.90;1.00;;;;;;5020257;28;20446;-52
2021/12/10 09:42:52;;;;;;;63.20;21.80;;;2.90;1.00;;;;;;5019235;28;20460;-51
2021/12/10 09:45:21;;;;;;;47.37;20.73;;;2.90;1.00;;;;;;5019272;28;20450;-52
2021/12/10 09:47:48;;;;;;;49.13;19.93;;;2.90;1.00;;;;;;5023126;28;20195;-52
2021/12/10 09:50:14;;;;;;;49.70;18.77;;;3.00;1.00;;;;;;5020196;28;20479;-51
2021/12/10 09:52:41;;;;;;;52.43;20.33;;;3.00;1.00;;;;;;5021624;28;20780;-51
2021/12/10 09:55:10;;;;;;;60.53;21.63;;;3.10;1.00;;;;;;5017028;28;20482;-52
2021/12/10 09:57:38;;;;;;;46.93;18.43;;;3.10;1.00;;;;;;5017299;28;20501;-52
2021/12/10 10:00:14;;;;;;;52.37;19.37;;;3.10;1.00;;;;;;5017185;28;20449;-51
2021/12/10 10:02:41;;;;;;;47.23;19.57;;;3.10;1.00;;;;;;5021266;28;20995;-52
2021/12/10 10:05:08;;;;;;;47.43;19.77;;;3.20;1.00;;;;;;5020506;28;20442;-51
2021/12/10 10:07:35;;;;;;;46.17;19.20;;;3.20;1.00;;;;;;5016125;28;20474;-52
2021/12/10 10:10:07;;;;;;;49.83;18.30;;;3.30;1.00;;;;;;5018295;28;20841;-52
2021/12/10 10:12:35;;;;;;;58.20;20.87;;;3.30;1.00;;;;;;5018558;28;20477;-52
2021/12/10 10:15:07;;;;;;;49.73;18.97;;;3.30;1.00;;;;;;5017138;28;20515;-51
2021/12/10 10:17:32;;;;;;;46.03;18.03;;;3.30;1.00;;;;;;5020018;28;20437;-52
2021/12/10 10:19:58;;;;;;;42.80;17.57;;;3.40;1.00;;;;;;5023250;28;20450;-51
2021/12/10 10:22:29;;;;;;;46.50;18.57;;;3.40;1.00;;;;;;5019362;28;20333;-57
2021/12/10 10:24:55;;;;;;;34.57;15.27;;;3.50;1.00;;;;;;5018481;28;20648;-52
2021/12/10 10:27:29;;;;;;;47.47;18.03;;;3.50;1.00;;;;;;5020192;28;20795;-52
2021/12/10 10:30:04;;;;;;;49.27;19.23;;;3.50;1.00;;;;;;5013236;28;20489;-52
2021/12/10 10:32:33;;;;;;;52.80;19.20;;;3.60;1.00;;;;;;5025149;28;20442;-51
2021/12/10 10:35:05;;;;;;;47.97;19.57;;;3.60;1.00;;;;;;5014653;28;20446;-52
2021/12/10 10:37:31;;;;;;;49.60;18.90;;;3.70;1.00;;;;;;5029605;28;20422;-51
2021/12/10 10:39:58;;;;;;;49.20;18.97;;;3.70;99.90;;;;;;5028663;28;20838;-53
2021/12/10 10:42:27;;;;;;;47.30;17.90;;;3.70;1.00;;;;;;5011744;28;20449;-53
2021/12/10 10:44:56;;;;;;;42.10;17.57;;;3.80;99.90;;;;;;5011928;28;20423;-52
2021/12/10 10:47:23;;;;;;;41.07;17.30;;;3.80;99.90;;;;;;5023737;28;20519;-52
2021/12/10 10:49:53;;;;;;;42.23;16.80;;;3.80;99.90;;;;;;5017736;28;20474;-52
2021/12/10 10:52:28;;;;;;;50.10;17.60;;;3.90;99.90;;;;;;5015206;28;20474;-52
2021/12/10 10:55:00;;;;;;;37.57;16.47;;;4.00;99.90;;;;;;5024080;28;20480;-52
2021/12/10 10:57:29;;;;;;;39.80;16.03;;;4.00;99.90;;;;;;5022645;28;20446;-53
2021/12/10 11:00:10;;;;;;;36.70;16.03;;;4.00;99.90;;;;;;5016125;28;20431;-54
2021/12/10 11:02:51;;;;;;;44.63;17.17;;;3.90;99.90;;;;;;5024143;28;20465;-52
2021/12/10 11:05:20;;;;;;;44.20;18.63;;;3.90;99.90;;;;;;5021281;28;20426;-52
2021/12/10 11:07:51;;;;;;;47.80;19.97;;;3.80;99.90;;;;;;5025753;28;20442;-52
2021/12/10 11:10:26;;;;;;;423.97;232.07;;;3.90;99.90;;;;;;5012480;28;20482;-52
2021/12/10 11:12:52;;;;;;;69.07;33.00;;;3.90;99.90;;;;;;5011724;28;20426;-52
2021/12/10 11:15:19;;;;;;;49.13;17.17;;;4.00;99.90;;;;;;5023336;28;20433;-52
2021/12/10 11:17:48;;;;;;;41.80;16.97;;;4.20;99.90;;;;;;5014209;28;20192;-52
2021/12/10 11:20:16;;;;;;;45.33;18.20;;;4.20;99.90;;;;;;5024923;28;20443;-52
2021/12/10 11:22:51;;;;;;;46.87;17.50;;;4.30;99.90;;;;;;5017281;28;21090;-52
2021/12/10 11:25:25;;;;;;;41.37;16.77;;;4.30;1.00;;;;;;5020739;28;20941;-52
2021/12/10 11:28:00;;;;;;;42.73;17.90;;;4.30;99.90;;;;;;5025330;28;20437;-55
2021/12/10 11:30:27;;;;;;;46.13;16.97;;;4.40;1.00;;;;;;5018525;28;20576;-52
2021/12/10 11:33:04;;;;;;;40.20;15.90;;;4.40;1.00;;;;;;5016925;28;20492;-52
2021/12/10 11:35:32;;;;;;;37.47;16.10;;;4.50;1.00;;;;;;5017702;28;20422;-52
2021/12/10 11:38:15;;;;;;;37.27;15.90;;;4.50;1.00;;;;;;5012888;28;21318;-52
2021/12/10 11:41:02;;;;;;;51.70;18.20;;;4.60;1.00;;;;;;5022816;28;20465;-52
2021/12/10 11:44:06;;;;;;;42.77;17.50;;;4.60;1.00;;;;;;5020334;28;21685;-52
2021/12/10 11:47:01;;;;;;;38.97;16.20;;;4.60;99.90;;;;;;5028432;28;20445;-53
2021/12/10 11:49:35;;;;;;;41.67;16.40;;;4.60;1.00;;;;;;5022157;28;20561;-52
2021/12/10 11:52:10;;;;;;;51.80;18.70;;;4.60;1.00;;;;;;5026284;28;20437;-53
2021/12/10 11:54:44;;;;;;;46.10;17.37;;;4.60;99.90;;;;;;5029147;28;20477;-52
2021/12/10 11:57:26;;;;;;;45.97;17.80;;;4.60;1.00;;;;;;5023645;28;20777;-53
2021/12/10 12:00:14;;;;;;;43.30;17.80;;;4.50;1.00;;;;;;5024543;28;20609;-52
2021/12/10 12:03:07;;;;;;;49.80;17.37;;;4.50;1.00;;;;;;5017276;28;20529;-51
2021/12/10 12:05:37;;;;;;;40.00;17.50;;;4.40;1.00;;;;;;5018494;28;20544;-52
2021/12/10 12:08:07;;;;;;;41.97;16.63;;;4.40;1.00;;;;;;5021939;28;20521;-52
2021/12/10 12:10:40;;;;;;;43.47;17.97;;;4.30;99.90;;;;;;5018060;28;20823;-52
2021/12/10 12:15:51;;;;;;;39.93;17.60;;;4.30;1.00;;;;;;5025351;28;20771;-53
2021/12/10 12:18:29;;;;;;;48.33;17.27;;;4.20;1.00;;;;;;5022205;28;20466;-52
2021/12/10 12:21:00;;;;;;;41.53;17.37;;;4.20;1.00;;;;;;5017796;28;20434;-53
2021/12/10 12:26:28;;;;;;;34.87;15.07;;;4.20;1.00;;;;;;5029042;28;22216;-53
2021/12/10 12:28:59;;;;;;;286.77;98.03;;;4.30;1.00;;;;;;5019075;28;20448;-53
2021/12/10 12:31:27;;;;;;;37.83;16.70;;;4.30;1.00;;;;;;5021682;28;20448;-53
2021/12/10 12:34:14;;;;;;;44.50;17.27;;;4.20;1.00;;;;;;5025740;28;20865;-53
2021/12/10 12:36:51;;;;;;;37.70;15.60;;;4.20;1.00;;;;;;5018650;28;20528;-60
2021/12/10 12:39:36;;;;;;;43.70;17.10;;;4.20;1.00;;;;;;5018345;28;20449;-53
2021/12/10 12:42:24;;;;;;;38.57;16.47;;;4.20;1.00;;;;;;5021910;28;20434;-53
2021/12/10 12:44:57;;;;;;;42.63;16.30;;;4.20;1.00;;;;;;5018964;28;20506;-53
2021/12/10 12:47:36;;;;;;;48.23;18.37;;;4.20;1.00;;;;;;5016231;28;21015;-53
2021/12/10 12:50:01;;;;;;;40.63;16.43;;;4.20;1.00;;;;;;5022446;28;20459;-51
2021/12/10 12:52:39;;;;;;;45.90;18.90;;;4.20;1.00;;;;;;5021825;28;20509;-51
2021/12/10 12:55:26;;;;;;;43.43;15.60;;;4.10;1.00;;;;;;5023362;28;20591;-51
2021/12/10 12:58:04;;;;;;;48.00;17.07;;;4.10;1.00;;;;;;5020216;28;21278;-55
2021/12/10 13:00:38;;;;;;;41.37;16.20;;;4.10;1.00;;;;;;5021342;28;20924;-51